Port Angeles, WA (98362)

8:40 PM PST on February 12, 2016 (GMT -0800)
Lake Dawn | | Change Station
CLOSE
Current Station
Personal Weather Station
Location: Port Angeles, WA
Elevation: 1864 ft
Nearby Weather Stations
Active Advisory: Areal Flood Watch

Elev 1864 ft 48.04 °N, 123.43 °W | Updated 10 minutes ago

Overcast
Overcast
41.0 °F
Feels Like 41 °F
N
0.0
Wind Variable Wind from North
Gusts 0.0 mph

Today
High -- | Low -- °F
--% Chance of Precip.
Yesterday
High -- | Low -- °F
Precip. -- in
Pressure 30.12 in
Visibility 10.0 miles
Clouds Clear
Windchill 41 °F
Dew Point 41 °F
Humidity 99%
Rainfall 0.25 in
Snow Depth Not available.
7:26 AM 5:31 PM
Waxing Crescent, 27% visible
METAR KCLM 130353Z AUTO 20008KT 10SM CLR 08/06 A3011 RMK AO2 SLP197 T00830056
Pressure 30.12 in
Visibility 10.0 miles
Clouds Clear
Windchill 41 °F
Dew Point 41 °F
Humidity 99%
Rainfall 0.25 in
Snow Depth Not available.
7:26 AM 5:31 PM
Waxing Crescent, 27% visible
METAR KCLM 130353Z AUTO 20008KT 10SM CLR 08/06 A3011 RMK AO2 SLP197 T00830056

10-Day Weather Forecast

Almanac

Astronomy

Feb. 12, 2016 Rise Set
Actual Time
Civil Twilight
Nautical Twilight
Astronomical Twilight
Moon
Length of Visible Light
Length of Day
Tomorrow will be .
, % of the Moon is Illuminated

Today's Extremes

State Highs State Lows

Community

WunderPhotos

Upload Photos

1,892,501 photos uploaded!

WunderBlog® & News

Nearby

Air Quality

  Air Quality AQ Index Pollutant
Not available.

Snow Depth

Station Depth Elevation

Earthquake Activity

City Distance Mag. Time & Date
Minimum magnitude displayed is 2.5.

Coastal Water Temperatures

Place Temperature

Stations

Nearby Weather Stations

Station Location Temp. Windchill Dew Point Humidity Wind Precip. Elev Updated Type
                   

Watches & Warnings

Areal Flood Watch
Issued: 3:22 PM PST Feb. 12, 2016 – National Weather Service

... Flood Watch in effect through Saturday morning...

The National Weather Service in Seattle has issued a

* Flood Watch for a portion of northwest Washington... including the
following County... Mason.

* Through Saturday morning

* heavy rain this morning forced a sharp rise in the Skokomish
River. The river is still running high but is expected to crest
right below flood stage. A warm front will bring more heavy rain
Saturday afternoon through Saturday night. Forecast rain amounts
of 1-3 inches are likely in the Olympics which will likely push
the Skokomish River over flood stage.

Precautionary/preparedness actions...

A Flood Watch means there is a potential for flooding based on
current forecasts.

You should monitor later forecasts and be alert for possible flood
warnings. Those living in areas prone to flooding should be prepared
to take action should flooding develop.